createdAt,value
2022-09-22T00:01:30.738Z,96990.66
2022-09-22T00:04:01.595Z,96979.28
2022-09-22T00:06:31.997Z,96981.34
2022-09-22T00:09:02.643Z,96977.94
2022-09-22T00:11:31.711Z,96978.91
2022-09-22T00:14:01.604Z,96980.41
2022-09-22T00:16:31.862Z,96985.06
2022-09-22T00:19:00.294Z,96984.53
2022-09-22T00:21:30.871Z,96980.31
2022-09-22T00:23:59.019Z,96987.41
2022-09-22T00:26:28.728Z,96989.81
2022-09-22T00:28:57.080Z,96978.81
2022-09-22T00:31:26.585Z,96976.34
2022-09-22T00:33:55.748Z,96977.31
2022-09-22T00:36:25.705Z,96968.59
2022-09-22T00:38:55.519Z,96962.75
2022-09-22T00:41:25.882Z,96962.03
2022-09-22T00:44:32.852Z,96952.03
2022-09-22T00:47:06.721Z,96948.22
2022-09-22T00:49:40.011Z,96949.91
2022-09-22T00:52:08.465Z,96959.66
2022-09-22T00:54:36.763Z,96959.63
2022-09-22T00:57:11.265Z,96952.19
2022-09-22T00:59:40.446Z,96952.22
2022-09-22T01:02:10.226Z,96948.44
2022-09-22T01:04:38.615Z,96951.63
2022-09-22T01:07:07.206Z,96951.22
2022-09-22T01:09:35.903Z,96943.44
2022-09-22T01:12:05.399Z,96939.09
2022-09-22T01:14:43.973Z,96935.94
2022-09-22T01:17:21.984Z,96925.22
2022-09-22T01:20:06.688Z,96930.03
2022-09-22T01:22:55.769Z,96926.16
2022-09-22T01:25:39.757Z,96919.94
2022-09-22T01:28:26.122Z,96925.63
2022-09-22T01:30:59.261Z,96932.84
2022-09-22T01:33:35.265Z,96931.75
2022-09-22T01:36:14.531Z,96939.78
2022-09-22T01:38:49.250Z,96932.31
2022-09-22T01:41:20.988Z,96924.22
2022-09-22T01:43:52.454Z,96932.59
2022-09-22T01:46:26.202Z,96922.84
2022-09-22T01:48:56.813Z,96918.25
2022-09-22T01:51:28.339Z,96913.81
2022-09-22T01:54:03.131Z,96922.84
2022-09-22T01:56:32.554Z,96920.22
2022-09-22T01:59:04.202Z,96914.47
2022-09-22T02:01:38.917Z,96923.47
2022-09-22T02:04:10.856Z,96921.38
2022-09-22T02:06:42.352Z,96921.69
2022-09-22T02:09:12.115Z,96917.81
2022-09-22T02:11:41.076Z,96935.38
2022-09-22T02:14:09.875Z,96925.16
2022-09-22T02:16:39.570Z,96925.47
2022-09-22T02:19:13.495Z,96930.19
2022-09-22T02:21:44.755Z,96927.03
2022-09-22T02:24:28.249Z,96926.63
2022-09-22T02:26:57.890Z,96935.34
2022-09-22T02:29:27.730Z,96931.75
2022-09-22T02:31:58.161Z,96922.41
2022-09-22T02:34:26.609Z,96925.78
2022-09-22T02:36:59.435Z,96927.72
2022-09-22T02:39:30.459Z,96919.09
2022-09-22T02:42:11.543Z,96919.63
2022-09-22T02:44:45.380Z,96919.16
2022-09-22T02:47:18.882Z,96920.63
2022-09-22T02:49:48.340Z,96930.75
2022-09-22T02:52:20.334Z,96930.25
2022-09-22T02:54:48.931Z,96922.47
2022-09-22T02:57:17.242Z,96927.03
2022-09-22T02:59:45.626Z,96925.41
2022-09-22T03:02:15.608Z,96929.78
2022-09-22T03:04:43.981Z,96930.38
2022-09-22T03:07:13.248Z,96929.22
2022-09-22T03:09:41.624Z,96931.56
2022-09-22T03:12:09.957Z,96932.00
2022-09-22T03:14:38.304Z,96925.47
2022-09-22T03:17:06.629Z,96921.03
2022-09-22T03:19:36.388Z,96929.78
2022-09-22T03:22:05.118Z,96930.69
2022-09-22T03:24:33.454Z,96927.03
2022-09-22T03:27:01.823Z,96926.16
2022-09-22T03:29:30.228Z,96924.16
2022-09-22T03:31:58.526Z,96919.72
2022-09-22T03:34:26.833Z,96924.78
2022-09-22T03:36:56.684Z,96920.81
2022-09-22T03:39:24.986Z,96929.38
2022-09-22T03:41:53.339Z,96924.66
2022-09-22T03:44:21.675Z,96929.63
2022-09-22T03:46:49.974Z,96923.47
2022-09-22T03:49:18.320Z,96914.53
2022-09-22T03:51:46.691Z,96916.59
2022-09-22T03:54:16.420Z,96914.78
2022-09-22T03:56:44.788Z,96915.56
2022-09-22T03:59:13.073Z,96919.28
2022-09-22T04:01:41.639Z,96912.59
2022-09-22T04:04:10.108Z,96916.25
2022-09-22T04:06:38.874Z,96916.53
2022-09-22T04:09:07.539Z,96913.50
2022-09-22T04:11:37.593Z,96913.81
2022-09-22T04:14:05.921Z,96918.22
2022-09-22T04:16:34.258Z,96916.41
2022-09-22T04:19:05.058Z,96915.28
2022-09-22T04:21:33.524Z,96917.28
2022-09-22T04:24:02.198Z,96911.63
2022-09-22T04:26:30.530Z,96906.16
2022-09-22T04:29:00.344Z,96915.53
2022-09-22T04:31:28.771Z,96918.25
2022-09-22T04:33:57.322Z,96918.34
2022-09-22T04:36:25.851Z,96915.09
2022-09-22T04:38:55.444Z,96916.13
2022-09-22T04:41:24.290Z,96926.16
2022-09-22T04:43:52.728Z,96927.00
2022-09-22T04:46:22.678Z,96929.31
2022-09-22T04:48:51.290Z,96933.19
2022-09-22T04:51:19.700Z,96936.88
2022-09-22T04:53:48.075Z,96939.91
2022-09-22T04:56:16.574Z,96939.00
2022-09-22T04:58:44.949Z,96945.56
2022-09-22T05:01:13.503Z,96941.22
2022-09-22T05:03:43.250Z,96942.19
2022-09-22T05:06:11.679Z,96941.84
2022-09-22T05:08:40.222Z,96931.78
2022-09-22T05:11:09.725Z,96941.13
2022-09-22T05:13:41.160Z,96949.28
2022-09-22T05:16:09.856Z,96943.38
2022-09-22T05:18:39.613Z,96948.81
2022-09-22T05:21:09.454Z,96948.00
2022-09-22T05:23:37.771Z,96945.63
2022-09-22T05:26:06.890Z,96944.94
2022-09-22T05:28:35.641Z,96951.81
2022-09-22T05:31:04.249Z,96953.78
2022-09-22T05:33:32.554Z,96956.75
2022-09-22T05:36:00.911Z,96954.94
2022-09-22T05:38:30.952Z,96962.94
2022-09-22T05:40:59.313Z,96956.28
2022-09-22T05:43:27.653Z,96965.72
2022-09-22T05:45:56.044Z,96970.56
2022-09-22T05:48:27.602Z,96971.47
2022-09-22T05:50:59.371Z,96965.53
2022-09-22T05:53:28.307Z,96970.22
2022-09-22T05:56:00.188Z,96965.38
2022-09-22T05:58:28.482Z,96968.84
2022-09-22T06:00:57.500Z,96960.25
2022-09-22T06:03:26.139Z,96970.75
2022-09-22T06:05:54.502Z,96969.19
2022-09-22T06:08:22.851Z,96965.13
2022-09-22T06:10:51.422Z,96970.09
2022-09-22T06:13:21.211Z,96967.63
2022-09-22T06:15:49.843Z,96976.63
2022-09-22T06:18:24.116Z,96969.09
2022-09-22T06:20:56.329Z,96965.97
2022-09-22T06:23:26.382Z,96956.91
2022-09-22T06:25:58.282Z,96949.72
2022-09-22T06:28:28.005Z,96946.69
2022-09-22T06:31:00.017Z,96945.34
2022-09-22T06:33:28.792Z,96950.66
2022-09-22T06:35:58.209Z,96964.41
2022-09-22T06:38:26.613Z,96944.38
2022-09-22T06:41:00.661Z,96941.84
2022-09-22T06:43:30.451Z,96946.75
2022-09-22T06:46:03.074Z,96938.28
2022-09-22T06:48:32.039Z,96947.19
2022-09-22T06:51:00.313Z,96947.44
2022-09-22T06:53:28.945Z,96941.75
2022-09-22T06:55:59.123Z,96939.91
2022-09-22T06:58:29.098Z,96939.72
2022-09-22T07:01:08.914Z,96945.63
2022-09-22T07:03:40.236Z,96950.69
2022-09-22T07:06:09.563Z,96949.69
2022-09-22T07:08:39.505Z,96945.38
2022-09-22T07:11:09.118Z,96937.19
2022-09-22T07:13:39.957Z,96945.13
2022-09-22T07:16:11.346Z,96944.53
2022-09-22T07:18:41.457Z,96936.81
2022-09-22T07:21:11.750Z,96936.97
2022-09-22T07:23:41.313Z,96940.44
2022-09-22T07:26:12.286Z,96930.44
2022-09-22T07:28:40.911Z,96942.00
2022-09-22T07:31:12.693Z,96940.94
2022-09-22T07:33:42.711Z,96944.19
2022-09-22T07:36:14.023Z,96940.94
2022-09-22T07:38:44.062Z,96932.66
2022-09-22T07:41:13.608Z,96933.03
2022-09-22T07:43:42.731Z,96923.31
2022-09-22T07:46:13.371Z,96937.84
2022-09-22T07:48:46.735Z,96930.09
2022-09-22T07:51:20.082Z,96929.31
2022-09-22T07:53:49.962Z,96927.22
2022-09-22T07:56:21.263Z,96928.78
2022-09-22T07:58:50.733Z,96923.72
2022-09-22T08:01:21.366Z,96934.38
2022-09-22T08:03:50.872Z,96929.25
2022-09-22T08:06:23.605Z,96930.16
2022-09-22T08:08:56.759Z,96926.91
2022-09-22T08:11:27.684Z,96934.34
2022-09-22T08:13:57.595Z,96927.53
2022-09-22T08:16:29.448Z,96934.25
2022-09-22T08:18:59.222Z,96942.78
2022-09-22T08:21:30.004Z,96943.31
2022-09-22T08:23:59.613Z,96954.25
2022-09-22T08:26:28.147Z,96945.56
2022-09-22T08:28:57.493Z,96938.91
2022-09-22T08:31:28.299Z,96940.47
2022-09-22T08:33:57.330Z,96939.56
2022-09-22T08:36:27.696Z,96922.19
2022-09-22T08:38:56.622Z,96932.59
2022-09-22T08:41:31.342Z,96926.50
2022-09-22T08:44:03.143Z,96925.91
2022-09-22T08:46:34.306Z,96926.16
2022-09-22T08:49:25.964Z,96926.56
2022-09-22T08:51:56.235Z,96928.31
2022-09-22T08:54:27.914Z,96912.78
2022-09-22T08:57:04.273Z,96923.28
2022-09-22T08:59:36.160Z,96920.03
2022-09-22T09:02:26.830Z,96916.97
2022-09-22T09:05:04.376Z,96919.63
2022-09-22T09:07:44.019Z,96918.34
2022-09-22T09:10:25.697Z,96920.16
2022-09-22T09:13:02.763Z,96911.59
2022-09-22T09:15:41.689Z,96911.91
2022-09-22T09:18:16.327Z,96909.56
2022-09-22T09:20:46.620Z,96910.13
2022-09-22T09:23:18.898Z,96910.06
2022-09-22T09:25:52.403Z,96907.22
2022-09-22T09:28:27.011Z,96915.13
2022-09-22T09:31:02.369Z,96913.31
2022-09-22T09:33:35.199Z,96904.00
2022-09-22T09:36:04.599Z,96907.50
2022-09-22T09:38:37.867Z,96907.66
2022-09-22T09:41:14.398Z,96915.94
2022-09-22T09:43:45.629Z,96900.38
2022-09-22T09:46:19.385Z,96896.91
2022-09-22T09:49:02.987Z,96902.78
2022-09-22T09:51:31.420Z,96895.47
2022-09-22T09:54:05.552Z,96890.59
2022-09-22T09:56:37.098Z,96896.59
2022-09-22T09:59:24.725Z,96885.59
2022-09-22T10:01:55.093Z,96888.16
2022-09-22T10:04:30.400Z,96880.84
2022-09-22T10:07:12.734Z,96877.16
2022-09-22T10:09:41.925Z,96881.63
2022-09-22T10:14:52.869Z,96875.56
2022-09-22T10:17:23.140Z,96872.44
2022-09-22T10:19:52.955Z,96863.97
2022-09-22T10:22:26.725Z,96871.78
2022-09-22T10:24:58.281Z,96868.13
2022-09-22T10:27:28.992Z,96869.97
2022-09-22T10:30:22.888Z,96871.44
2022-09-22T10:33:12.420Z,96862.88
2022-09-22T10:35:43.052Z,96867.75
2022-09-22T10:38:22.314Z,96861.53
2022-09-22T10:40:56.445Z,96863.97
2022-09-22T10:43:38.943Z,96859.78
2022-09-22T10:46:18.866Z,96860.16
2022-09-22T10:48:50.267Z,96860.41
2022-09-22T10:51:28.679Z,96859.38
2022-09-22T10:54:16.393Z,96850.47
2022-09-22T10:56:47.709Z,96860.16
2022-09-22T10:59:39.139Z,96851.53
2022-09-22T11:02:35.055Z,96861.25
2022-09-22T11:05:40.441Z,96858.91
2022-09-22T11:08:30.811Z,96855.41
2022-09-22T11:11:21.967Z,96859.13
2022-09-22T11:13:59.683Z,96857.75
2022-09-22T11:16:42.017Z,96862.25
2022-09-22T11:19:31.619Z,96856.47
2022-09-22T11:22:13.600Z,96849.06
2022-09-22T11:25:03.763Z,96845.56
2022-09-22T11:27:43.950Z,96851.75
2022-09-22T11:30:20.741Z,96847.81
2022-09-22T11:33:13.195Z,96849.00
2022-09-22T11:36:01.859Z,96846.25
2022-09-22T11:38:53.917Z,96847.41
2022-09-22T11:41:29.490Z,96844.72
2022-09-22T11:44:29.550Z,96844.50
2022-09-22T11:47:13.994Z,96834.84
2022-09-22T11:49:56.182Z,96841.97
2022-09-22T11:52:33.080Z,96834.97
2022-09-22T11:55:14.903Z,96825.94
2022-09-22T11:57:47.302Z,96829.66
2022-09-22T12:00:19.004Z,96828.53
2022-09-22T12:02:50.757Z,96809.22
2022-09-22T12:05:21.649Z,96809.97
2022-09-22T12:07:55.677Z,96815.16
2022-09-22T12:10:33.596Z,96802.47
2022-09-22T12:13:04.404Z,96812.69
2022-09-22T12:15:36.363Z,96806.38
2022-09-22T12:18:17.960Z,96807.59
2022-09-22T12:21:00.536Z,96804.47
2022-09-22T12:23:41.267Z,96803.50
2022-09-22T12:26:11.536Z,96795.72
2022-09-22T12:28:43.046Z,96801.25
2022-09-22T12:31:14.161Z,96797.81
2022-09-22T12:33:48.528Z,96799.25
2022-09-22T12:36:17.695Z,96799.09
2022-09-22T12:38:46.456Z,96791.84
2022-09-22T12:41:18.923Z,96795.97
2022-09-22T12:43:48.868Z,96789.91
2022-09-22T12:46:34.832Z,96785.03
2022-09-22T12:49:09.205Z,96784.59
2022-09-22T12:51:39.519Z,96784.94
2022-09-22T12:54:47.225Z,96773.97
2022-09-22T12:57:28.851Z,96774.47
2022-09-22T13:00:32.203Z,96770.25
2022-09-22T13:03:02.210Z,96781.09
2022-09-22T13:05:37.738Z,96767.63
2022-09-22T13:08:06.138Z,96771.13
2022-09-22T13:10:51.826Z,96767.44
2022-09-22T13:13:42.931Z,96762.25
2022-09-22T13:16:37.406Z,96764.69
2022-09-22T13:19:11.020Z,96765.22
2022-09-22T13:21:41.659Z,96765.78
2022-09-22T13:24:23.665Z,96770.69
2022-09-22T13:27:04.716Z,96763.31
2022-09-22T13:29:34.490Z,96757.66
2022-09-22T13:32:18.084Z,96760.84
2022-09-22T13:34:46.824Z,96756.13
2022-09-22T13:37:22.427Z,96751.91
2022-09-22T13:39:52.771Z,96747.19
2022-09-22T13:42:23.283Z,96749.13
2022-09-22T13:44:57.764Z,96748.38
2022-09-22T13:47:28.066Z,96750.00
2022-09-22T13:49:58.517Z,96757.72
2022-09-22T13:52:27.561Z,96758.16
2022-09-22T13:54:57.874Z,96750.94
2022-09-22T13:57:29.130Z,96748.97
2022-09-22T13:59:59.823Z,96756.84
2022-09-22T14:02:32.518Z,96737.16
2022-09-22T14:05:04.100Z,96734.53
2022-09-22T14:07:38.296Z,96744.19
2022-09-22T14:10:17.542Z,96732.84
2022-09-22T14:12:45.942Z,96736.16
2022-09-22T14:15:44.541Z,96730.97
2022-09-22T14:18:21.009Z,96735.84
2022-09-22T14:20:49.650Z,96727.06
2022-09-22T14:23:19.850Z,96722.94
2022-09-22T14:25:48.138Z,96717.78
2022-09-22T14:28:21.893Z,96729.56
2022-09-22T14:30:50.809Z,96727.72
2022-09-22T14:33:23.306Z,96720.38
2022-09-22T14:35:52.861Z,96716.16
2022-09-22T14:38:24.038Z,96730.81
2022-09-22T14:40:54.109Z,96730.84
2022-09-22T14:43:24.862Z,96709.03
2022-09-22T14:46:00.635Z,96713.88
2022-09-22T14:48:31.831Z,96720.44
2022-09-22T14:51:02.722Z,96714.13
2022-09-22T14:53:33.771Z,96710.19
2022-09-22T14:56:06.000Z,96715.38
2022-09-22T14:58:40.762Z,96715.69
2022-09-22T15:01:38.074Z,96707.44
2022-09-22T15:04:17.355Z,96707.59
2022-09-22T15:06:47.913Z,96703.72
2022-09-22T15:09:23.895Z,96704.41
2022-09-22T15:11:54.831Z,96696.63
2022-09-22T15:14:42.998Z,96702.94
2022-09-22T15:17:54.879Z,96697.34
2022-09-22T15:20:26.979Z,96694.75
2022-09-22T15:22:55.432Z,96695.06
2022-09-22T15:25:24.113Z,96703.03
2022-09-22T15:27:53.456Z,96696.03
2022-09-22T15:30:22.943Z,96700.69
2022-09-22T15:32:51.267Z,96697.53
2022-09-22T15:35:20.351Z,96694.78
2022-09-22T15:37:50.888Z,96693.28
2022-09-22T15:40:20.561Z,96692.56
2022-09-22T15:43:11.234Z,96704.00
2022-09-22T15:45:38.541Z,96691.50
2022-09-22T15:48:06.936Z,96698.25
2022-09-22T15:50:35.253Z,96691.06
2022-09-22T15:53:04.942Z,96695.97
2022-09-22T15:55:34.437Z,96703.03
2022-09-22T15:58:07.399Z,96698.72
2022-09-22T16:00:36.077Z,96697.63
2022-09-22T16:03:09.784Z,96695.06
2022-09-22T16:05:38.109Z,96704.38
2022-09-22T16:08:08.396Z,96693.94
2022-09-22T16:10:36.665Z,96695.06
2022-09-22T16:13:05.893Z,96698.38
2022-09-22T16:15:34.225Z,96703.56
2022-09-22T16:18:02.484Z,96699.91
2022-09-22T16:20:30.816Z,96709.38
2022-09-22T16:22:59.135Z,96705.25
2022-09-22T16:25:31.107Z,96700.28
2022-09-22T16:27:59.380Z,96702.25
2022-09-22T16:30:28.287Z,96696.47
2022-09-22T16:32:56.562Z,96694.19
2022-09-22T16:35:25.369Z,96704.31
2022-09-22T16:37:57.244Z,96695.34
2022-09-22T16:40:26.329Z,96706.78
2022-09-22T16:42:56.031Z,96704.38
2022-09-22T16:45:38.390Z,96688.38
2022-09-22T16:48:07.605Z,96687.50
2022-09-22T16:50:37.655Z,96699.41
2022-09-22T16:53:07.917Z,96703.06
2022-09-22T16:55:37.530Z,96702.56
2022-09-22T16:58:13.168Z,96692.97
2022-09-22T17:00:41.721Z,96694.00
2022-09-22T17:03:10.099Z,96696.09
2022-09-22T17:05:39.723Z,96697.41
2022-09-22T17:08:08.479Z,96700.53
2022-09-22T17:10:36.817Z,96700.97
2022-09-22T17:13:05.279Z,96707.56
2022-09-22T17:15:36.108Z,96694.22
2022-09-22T17:18:04.983Z,96700.00
2022-09-22T17:20:33.241Z,96698.31
2022-09-22T17:23:02.042Z,96702.03
2022-09-22T17:25:30.399Z,96698.72
2022-09-22T17:27:59.094Z,96697.06
2022-09-22T17:30:28.731Z,96699.13
2022-09-22T17:32:58.378Z,96704.25
2022-09-22T17:35:26.851Z,96703.63
2022-09-22T17:37:55.191Z,96708.13
2022-09-22T17:40:23.563Z,96702.88
2022-09-22T17:42:51.875Z,96712.47
2022-09-22T17:45:20.218Z,96714.50
2022-09-22T17:48:06.043Z,96716.66
2022-09-22T17:50:53.232Z,96714.66
2022-09-22T17:53:39.034Z,96716.25
2022-09-22T17:56:09.554Z,96721.03
2022-09-22T17:58:40.780Z,96717.88
2022-09-22T18:01:09.027Z,96714.63
2022-09-22T18:03:37.309Z,96718.91
2022-09-22T18:06:14.632Z,96711.66
2022-09-22T18:08:44.614Z,96722.53
2022-09-22T18:11:13.658Z,96725.09
2022-09-22T18:16:36.729Z,96720.41
2022-09-22T18:19:05.716Z,96724.47
2022-09-22T18:21:35.449Z,96721.97
2022-09-22T18:24:04.106Z,96723.38
2022-09-22T18:26:38.349Z,96719.00
2022-09-22T18:29:10.062Z,96725.69
2022-09-22T18:31:38.870Z,96727.38
2022-09-22T18:34:08.456Z,96731.97
2022-09-22T18:36:44.800Z,96728.84
2022-09-22T18:39:13.332Z,96733.09
2022-09-22T18:41:41.987Z,96727.72
2022-09-22T18:44:13.367Z,96729.19
2022-09-22T18:46:42.277Z,96736.22
2022-09-22T18:49:10.592Z,96736.84
2022-09-22T18:51:42.688Z,96733.63
2022-09-22T18:54:15.401Z,96731.91
2022-09-22T18:56:45.798Z,96732.81
2022-09-22T18:59:15.592Z,96735.00
2022-09-22T19:01:44.609Z,96738.97
2022-09-22T19:04:17.353Z,96736.84
2022-09-22T19:07:05.279Z,96741.25
2022-09-22T19:09:34.130Z,96737.28
2022-09-22T19:12:04.206Z,96737.78
2022-09-22T19:14:39.115Z,96739.34
2022-09-22T19:17:08.894Z,96736.69
2022-09-22T19:19:37.983Z,96743.25
2022-09-22T19:22:09.066Z,96738.25
2022-09-22T19:24:38.079Z,96737.63
2022-09-22T19:27:08.670Z,96736.50
2022-09-22T19:29:36.768Z,96737.28
2022-09-22T19:32:05.987Z,96732.41
2022-09-22T19:34:34.521Z,96742.72
2022-09-22T19:37:02.885Z,96745.63
2022-09-22T19:39:32.864Z,96738.88
2022-09-22T19:42:01.462Z,96741.66
2022-09-22T19:44:32.434Z,96744.41
2022-09-22T19:47:00.783Z,96741.25
2022-09-22T19:49:29.615Z,96732.47
2022-09-22T19:51:57.956Z,96732.00
2022-09-22T19:54:27.156Z,96729.47
2022-09-22T19:56:57.001Z,96734.88
2022-09-22T19:59:25.380Z,96740.34
2022-09-22T20:01:55.069Z,96738.16
2022-09-22T20:04:23.505Z,96736.16
2022-09-22T20:06:52.022Z,96734.53
2022-09-22T20:09:20.303Z,96731.84
2022-09-22T20:11:52.294Z,96731.25
2022-09-22T20:14:22.202Z,96744.50
2022-09-22T20:16:52.735Z,96729.91
2022-09-22T20:19:21.568Z,96729.41
2022-09-22T20:21:51.508Z,96728.09
2022-09-22T20:24:22.254Z,96730.22
2022-09-22T20:26:50.710Z,96729.91
2022-09-22T20:29:20.645Z,96718.59
2022-09-22T20:31:50.355Z,96727.06
2022-09-22T20:34:18.686Z,96728.91
2022-09-22T20:36:46.971Z,96726.94
2022-09-22T20:39:15.650Z,96717.25
2022-09-22T20:41:44.776Z,96722.84
2022-09-22T20:44:15.822Z,96715.59
2022-09-22T20:46:44.186Z,96721.81
2022-09-22T20:49:15.194Z,96721.25
2022-09-22T20:51:43.630Z,96712.88
2022-09-22T20:54:11.976Z,96719.94
2022-09-22T20:56:42.769Z,96714.38
2022-09-22T20:59:11.495Z,96721.78
2022-09-22T21:01:39.858Z,96721.81
2022-09-22T21:04:10.081Z,96716.19
2022-09-22T21:06:42.542Z,96713.91
2022-09-22T21:09:28.439Z,96711.22
2022-09-22T21:11:56.882Z,96710.56
2022-09-22T21:14:25.130Z,96717.78
2022-09-22T21:16:53.496Z,96719.81
2022-09-22T21:19:21.874Z,96720.69
2022-09-22T21:21:53.062Z,96721.88
2022-09-22T21:27:14.164Z,96719.13
2022-09-22T21:29:42.560Z,96707.03
2022-09-22T21:32:10.872Z,96708.19
2022-09-22T21:34:39.234Z,96708.31
2022-09-22T21:37:09.761Z,96699.59
2022-09-22T21:39:38.118Z,96703.88
2022-09-22T21:42:06.560Z,96708.91
2022-09-22T21:44:34.848Z,96706.19
2022-09-22T21:47:03.136Z,96711.19
2022-09-22T21:49:31.443Z,96704.75
2022-09-22T21:52:00.736Z,96701.97
2022-09-22T21:54:31.173Z,96706.81
2022-09-22T21:56:59.409Z,96712.50
2022-09-22T21:59:27.683Z,96703.53
2022-09-22T22:01:56.022Z,96701.50
2022-09-22T22:04:24.496Z,96706.81
2022-09-22T22:06:52.726Z,96699.88
2022-09-22T22:09:22.478Z,96697.38
2022-09-22T22:11:54.726Z,96693.41
2022-09-22T22:14:24.375Z,96693.91
2022-09-22T22:16:54.220Z,96691.22
2022-09-22T22:19:25.790Z,96692.75
2022-09-22T22:21:54.774Z,96693.91
2022-09-22T22:24:29.302Z,96681.09
2022-09-22T22:27:01.498Z,96687.81
2022-09-22T22:29:31.675Z,96678.72
2022-09-22T22:32:00.215Z,96680.75
2022-09-22T22:34:28.580Z,96681.59
2022-09-22T22:36:57.992Z,96678.09
2022-09-22T22:39:26.395Z,96667.50
2022-09-22T22:41:55.640Z,96663.84
2022-09-22T22:44:25.451Z,96668.97
2022-09-22T22:46:53.774Z,96666.66
2022-09-22T22:49:22.151Z,96667.53
2022-09-22T22:51:52.371Z,96672.50
2022-09-22T22:54:20.768Z,96674.50
2022-09-22T22:56:51.262Z,96679.44
2022-09-22T22:59:20.016Z,96679.72
2022-09-22T23:01:49.763Z,96676.69
2022-09-22T23:04:18.236Z,96683.19
2022-09-22T23:06:48.461Z,96682.75
2022-09-22T23:09:17.959Z,96678.50
2022-09-22T23:11:47.558Z,96673.53
2022-09-22T23:14:16.488Z,96668.63
2022-09-22T23:16:47.273Z,96674.47
2022-09-22T23:19:18.148Z,96667.13
2022-09-22T23:21:46.955Z,96667.72
2022-09-22T23:24:16.935Z,96667.50
2022-09-22T23:26:45.732Z,96663.25
2022-09-22T23:29:14.626Z,96666.75
2022-09-22T23:31:42.903Z,96660.84
2022-09-22T23:34:11.215Z,96653.09
2022-09-22T23:36:40.896Z,96666.22
2022-09-22T23:39:09.140Z,96662.78
2022-09-22T23:41:38.380Z,96655.69
2022-09-22T23:44:07.422Z,96657.22
2022-09-22T23:46:37.510Z,96661.53
2022-09-22T23:49:06.425Z,96658.13
2022-09-22T23:51:35.014Z,96661.31
2022-09-22T23:54:04.889Z,96661.53
2022-09-22T23:56:33.188Z,96656.25
2022-09-22T23:59:01.481Z,96648.31
